Sealand Washington — 9HA3421 — position and weather

sailwx.info

Track history (hours):
 
Tides and Currents Weather Stations Pressure Air Temp Water Temp Dewpoint Dewpoint Depression Visibility Wind Speed Wind Dir Waves Ship Positions

Sealand Washington

Last reported at 2018-Apr-22 13:54 UTC. Time now 2018-Apr-23 04:00 UTC.
Position N 36°55' E 024°00'.

Length 304 m; draft 13.5 m.

Type: Ship. MMSI: 229577000.

Date/timePositionNaut miles runAvg speedWind from/ knotsBaromVisibWave heightAir tempDewpointWater temp
2018-Apr-22 13:54N 36°55' E 024°00'  
2018-Apr-16 12:16N 40°01' E 026°12'11 9.9
2018-Apr-16 11:12N 39°57' E 025°59'311.7
2018-Apr-16 10:58N 39°55' E 025°57'811.3
2018-Apr-16 10:14N 39°49' E 025°50'3311.8
2018-Apr-16 07:25N 39°19' E 025°31'816.4
2018-Apr-16 06:55N 39°12' E 025°26'2316.3
2018-Apr-16 05:31N 38°51' E 025°12'016.5
2018-Apr-16 05:30N 38°51' E 025°12'9615.0
2018-Apr-15 23:06N 37°36' E 023°57'215.9
2018-Apr-15 23:00N 37°36' E 023°54'816.0
2018-Apr-15 22:30N 37°37' E 023°45'815.9
2018-Apr-15 21:59N 37°45' E 023°39'816.0
2018-Apr-15 21:30N 37°52' E 023°37'510.3
2018-Apr-15 21:00N 37°57' E 023°35'1 1.1
2018-Apr-15 20:29N 37°57' E 023°35'0 0.0
2018-Apr-15 20:00N 37°57' E 023°35'0 0.0
2018-Apr-15 19:30N 37°57' E 023°35'0 0.0
2018-Apr-15 18:59N 37°57' E 023°35'0 0.0
2018-Apr-15 18:30N 37°57' E 023°35'0 0.0
2018-Apr-15 17:56N 37°57' E 023°35'0 0.0
2018-Apr-15 17:30N 37°57' E 023°35'0 0.0
2018-Apr-15 16:59N 37°57' E 023°35'0 0.0
2018-Apr-15 16:27N 37°57' E 023°35'0 0.0
2018-Apr-15 16:00N 37°57' E 023°35'0 0.0
2018-Apr-15 15:29N 37°57' E 023°35'0 0.0
2018-Apr-15 15:00N 37°57' E 023°35'0 0.0
2018-Apr-15 14:30N 37°57' E 023°35'0 0.0
2018-Apr-15 14:00N 37°57' E 023°35'0 0.0
2018-Apr-15 13:30N 37°57' E 023°35'0 0.0
2018-Apr-15 12:59N 37°57' E 023°35'0 0.0
2018-Apr-15 12:30N 37°57' E 023°35'0 0.0
2018-Apr-15 12:00N 37°57' E 023°35'0 0.0
2018-Apr-15 11:30N 37°57' E 023°35'0 0.0
2018-Apr-15 11:00N 37°57' E 023°35'0 0.0
2018-Apr-15 10:30N 37°57' E 023°35'0 0.0
2018-Apr-15 10:00N 37°57' E 023°35'0 0.0
2018-Apr-15 09:30N 37°57' E 023°35'0 0.0
2018-Apr-15 09:00N 37°57' E 023°35'0 0.0
2018-Apr-15 08:30N 37°57' E 023°35'0 0.0
2018-Apr-15 08:00N 37°57' E 023°35'0 0.0
2018-Apr-15 07:30N 37°57' E 023°35'0 0.0
2018-Apr-15 06:59N 37°57' E 023°35'0 0.0
2018-Apr-15 06:29N 37°57' E 023°35'0 0.0
2018-Apr-15 06:00N 37°57' E 023°35'0 0.0
2018-Apr-15 05:30N 37°57' E 023°35'0 0.0
2018-Apr-15 05:00N 37°57' E 023°35'0 0.8
2018-Apr-15 04:30N 37°57' E 023°35'3 5.0
2018-Apr-15 04:00N 37°54' E 023°35'3 6.5
2018-Apr-15 03:30N 37°51' E 023°37'1 1.8
2018-Apr-15 03:00N 37°51' E 023°38'3 5.0
2018-Apr-15 02:30N 37°49' E 023°40'4 8.5
2018-Apr-15 02:00N 37°45' E 023°43'5 9.4
2018-Apr-15 01:30N 37°41' E 023°45'611.9
2018-Apr-15 01:00N 37°35' E 023°47'5 3.3
2018-Apr-14 23:19N 37°30' E 023°45'0 0.1
2018-Apr-14 23:00N 37°30' E 023°45'0 0.1
2018-Apr-14 22:30N 37°30' E 023°45'0 0.1
2018-Apr-14 22:00N 37°30' E 023°46'0 0.1
2018-Apr-14 21:30N 37°30' E 023°46'0 0.1
2018-Apr-14 20:43N 37°30' E 023°46'0 0.2
2018-Apr-14 19:24N 37°30' E 023°46'0 0.3
2018-Apr-14 19:00N 37°30' E 023°46'0 0.3
2018-Apr-14 18:14N 37°30' E 023°46'0 0.3
2018-Apr-14 17:55N 37°30' E 023°46'0 0.2
2018-Apr-14 17:27N 37°30' E 023°47'0 0.1
2018-Apr-14 16:57N 37°30' E 023°47'0 0.1
2018-Apr-14 16:30N 37°31' E 023°47'0 0.1
2018-Apr-14 16:00N 37°31' E 023°47'0 0.2
2018-Apr-14 15:30N 37°31' E 023°47'1 0.2
2018-Apr-14 12:07N 37°30' E 023°47'0 0.3
2018-Apr-14 12:00N 37°30' E 023°47'0 0.3
2018-Apr-14 11:30N 37°30' E 023°47'0 0.3
2018-Apr-14 11:00N 37°30' E 023°47'0 0.3
2018-Apr-14 10:30N 37°30' E 023°47'0 0.3
2018-Apr-14 09:22N 37°29' E 023°48'0 0.2
2018-Apr-14 08:51N 37°30' E 023°48'0 0.4
2018-Apr-14 08:30N 37°29' E 023°48'0 0.6
2018-Apr-14 07:57N 37°29' E 023°48'0 0.8
2018-Apr-14 07:28N 37°29' E 023°48'511.9
2018-Apr-14 07:00N 37°24' E 023°48'1117.1
2018-Apr-14 06:22N 37°12' E 023°48'6318.8
2018-Apr-14 03:00N 36°12' E 023°26'1617.7
2018-Apr-14 02:07N 36°01' E 023°12'519.0
2018-Apr-14 01:53N 35°60' E 023°06'34919.0
2018-Apr-13 07:34N 35°48' E 015°56'219.4
2018-Apr-13 07:27N 35°48' E 015°53'1021.7
2018-Apr-13 06:58N 35°47' E 015°41'817.4
2018-Apr-13 06:29N 35°47' E 015°30'1522.4
2018-Apr-13 05:50N 35°48' E 015°12'516.0
2018-Apr-13 05:30N 35°47' E 015°06'1019.5
2018-Apr-13 04:59N 35°47' E 014°53'1019.1
2018-Apr-13 04:28N 35°47' E 014°41'711.7
2018-Apr-13 03:51N 35°49' E 014°33'  
Track history (hours):
 
Tides and Currents Weather Stations Pressure Air Temp Water Temp Dewpoint Dewpoint Depression Visibility Wind Speed Wind Dir Waves Ship Positions

Sealand Washington

Last reported at 2018-Apr-22 13:54 UTC. Time now 2018-Apr-23 04:00 UTC.
Position N 36°55' E 024°00'.

Length 304 m; draft 13.5 m.

Type: Ship. MMSI: 229577000.

Date/timePositionNaut miles runAvg speedWind from/ knotsBaromVisibWave heightAir tempDewpointWater temp
2018-Apr-22 13:54N 36°55' E 024°00'  
2018-Apr-16 12:16N 40°01' E 026°12'11 9.9
2018-Apr-16 11:12N 39°57' E 025°59'311.7
2018-Apr-16 10:58N 39°55' E 025°57'811.3
2018-Apr-16 10:14N 39°49' E 025°50'3311.8
2018-Apr-16 07:25N 39°19' E 025°31'816.4
2018-Apr-16 06:55N 39°12' E 025°26'2316.3
2018-Apr-16 05:31N 38°51' E 025°12'016.5
2018-Apr-16 05:30N 38°51' E 025°12'9615.0
2018-Apr-15 23:06N 37°36' E 023°57'215.9
2018-Apr-15 23:00N 37°36' E 023°54'816.0
2018-Apr-15 22:30N 37°37' E 023°45'815.9
2018-Apr-15 21:59N 37°45' E 023°39'816.0
2018-Apr-15 21:30N 37°52' E 023°37'510.3
2018-Apr-15 21:00N 37°57' E 023°35'1 1.1
2018-Apr-15 20:29N 37°57' E 023°35'0 0.0
2018-Apr-15 20:00N 37°57' E 023°35'0 0.0
2018-Apr-15 19:30N 37°57' E 023°35'0 0.0
2018-Apr-15 18:59N 37°57' E 023°35'0 0.0
2018-Apr-15 18:30N 37°57' E 023°35'0 0.0
2018-Apr-15 17:56N 37°57' E 023°35'0 0.0
2018-Apr-15 17:30N 37°57' E 023°35'0 0.0
2018-Apr-15 16:59N 37°57' E 023°35'0 0.0
2018-Apr-15 16:27N 37°57' E 023°35'0 0.0
2018-Apr-15 16:00N 37°57' E 023°35'0 0.0
2018-Apr-15 15:29N 37°57' E 023°35'0 0.0
2018-Apr-15 15:00N 37°57' E 023°35'0 0.0
2018-Apr-15 14:30N 37°57' E 023°35'0 0.0
2018-Apr-15 14:00N 37°57' E 023°35'0 0.0
2018-Apr-15 13:30N 37°57' E 023°35'0 0.0
2018-Apr-15 12:59N 37°57' E 023°35'0 0.0
2018-Apr-15 12:30N 37°57' E 023°35'0 0.0
2018-Apr-15 12:00N 37°57' E 023°35'0 0.0
2018-Apr-15 11:30N 37°57' E 023°35'0 0.0
2018-Apr-15 11:00N 37°57' E 023°35'0 0.0
2018-Apr-15 10:30N 37°57' E 023°35'0 0.0
2018-Apr-15 10:00N 37°57' E 023°35'0 0.0
2018-Apr-15 09:30N 37°57' E 023°35'0 0.0
2018-Apr-15 09:00N 37°57' E 023°35'0 0.0
2018-Apr-15 08:30N 37°57' E 023°35'0 0.0
2018-Apr-15 08:00N 37°57' E 023°35'0 0.0
2018-Apr-15 07:30N 37°57' E 023°35'0 0.0
2018-Apr-15 06:59N 37°57' E 023°35'0 0.0
2018-Apr-15 06:29N 37°57' E 023°35'0 0.0
2018-Apr-15 06:00N 37°57' E 023°35'0 0.0
2018-Apr-15 05:30N 37°57' E 023°35'0 0.0
2018-Apr-15 05:00N 37°57' E 023°35'0 0.8
2018-Apr-15 04:30N 37°57' E 023°35'3 5.0
2018-Apr-15 04:00N 37°54' E 023°35'3 6.5
2018-Apr-15 03:30N 37°51' E 023°37'1 1.8
2018-Apr-15 03:00N 37°51' E 023°38'3 5.0
2018-Apr-15 02:30N 37°49' E 023°40'4 8.5
2018-Apr-15 02:00N 37°45' E 023°43'5 9.4
2018-Apr-15 01:30N 37°41' E 023°45'611.9
2018-Apr-15 01:00N 37°35' E 023°47'5 3.3
2018-Apr-14 23:19N 37°30' E 023°45'0 0.1
2018-Apr-14 23:00N 37°30' E 023°45'0 0.1
2018-Apr-14 22:30N 37°30' E 023°45'0 0.1
2018-Apr-14 22:00N 37°30' E 023°46'0 0.1
2018-Apr-14 21:30N 37°30' E 023°46'0 0.1
2018-Apr-14 20:43N 37°30' E 023°46'0 0.2
2018-Apr-14 19:24N 37°30' E 023°46'0 0.3
2018-Apr-14 19:00N 37°30' E 023°46'0 0.3
2018-Apr-14 18:14N 37°30' E 023°46'0 0.3
2018-Apr-14 17:55N 37°30' E 023°46'0 0.2
2018-Apr-14 17:27N 37°30' E 023°47'0 0.1
2018-Apr-14 16:57N 37°30' E 023°47'0 0.1
2018-Apr-14 16:30N 37°31' E 023°47'0 0.1
2018-Apr-14 16:00N 37°31' E 023°47'0 0.2
2018-Apr-14 15:30N 37°31' E 023°47'1 0.2
2018-Apr-14 12:07N 37°30' E 023°47'0 0.3
2018-Apr-14 12:00N 37°30' E 023°47'0 0.3
2018-Apr-14 11:30N 37°30' E 023°47'0 0.3
2018-Apr-14 11:00N 37°30' E 023°47'0 0.3
2018-Apr-14 10:30N 37°30' E 023°47'0 0.3
2018-Apr-14 09:22N 37°29' E 023°48'0 0.2
2018-Apr-14 08:51N 37°30' E 023°48'0 0.4
2018-Apr-14 08:30N 37°29' E 023°48'0 0.6
2018-Apr-14 07:57N 37°29' E 023°48'0 0.8
2018-Apr-14 07:28N 37°29' E 023°48'511.9
2018-Apr-14 07:00N 37°24' E 023°48'1117.1
2018-Apr-14 06:22N 37°12' E 023°48'6318.8
2018-Apr-14 03:00N 36°12' E 023°26'1617.7
2018-Apr-14 02:07N 36°01' E 023°12'519.0
2018-Apr-14 01:53N 35°60' E 023°06'34919.0
2018-Apr-13 07:34N 35°48' E 015°56'219.4
2018-Apr-13 07:27N 35°48' E 015°53'1021.7
2018-Apr-13 06:58N 35°47' E 015°41'817.4
2018-Apr-13 06:29N 35°47' E 015°30'1522.4
2018-Apr-13 05:50N 35°48' E 015°12'516.0
2018-Apr-13 05:30N 35°47' E 015°06'1019.5
2018-Apr-13 04:59N 35°47' E 014°53'1019.1
2018-Apr-13 04:28N 35°47' E 014°41'711.7
2018-Apr-13 03:51N 35°49' E 014°33'  

Dump ship's entire track history